sensor_id;sensor_type;location;lat;lon;timestamp;P1;durP1;ratioP1;P2;durP2;ratioP2
3922;SDS011;1976;51.694;6.256;2023-04-24T00:02:20;1.50;;;1.40;;
3922;SDS011;1976;51.694;6.256;2023-04-24T00:04:47;1.73;;;1.63;;
3922;SDS011;1976;51.694;6.256;2023-04-24T00:07:13;1.20;;;1.10;;
3922;SDS011;1976;51.694;6.256;2023-04-24T00:09:42;1.00;;;1.00;;
3922;SDS011;1976;51.694;6.256;2023-04-24T00:12:08;0.90;;;0.90;;
3922;SDS011;1976;51.694;6.256;2023-04-24T00:14:34;1.30;;;1.30;;
3922;SDS011;1976;51.694;6.256;2023-04-24T00:17:01;0.90;;;0.90;;
3922;SDS011;1976;51.694;6.256;2023-04-24T00:19:27;7.60;;;1.60;;
3922;SDS011;1976;51.694;6.256;2023-04-24T00:21:54;1.53;;;1.43;;
3922;SDS011;1976;51.694;6.256;2023-04-24T00:24:20;1.40;;;1.30;;
3922;SDS011;1976;51.694;6.256;2023-04-24T00:26:46;3.10;;;2.83;;
3922;SDS011;1976;51.694;6.256;2023-04-24T00:29:12;3.20;;;2.93;;
3922;SDS011;1976;51.694;6.256;2023-04-24T00:31:38;3.50;;;3.20;;
3922;SDS011;1976;51.694;6.256;2023-04-24T00:34:05;4.03;;;3.73;;
3922;SDS011;1976;51.694;6.256;2023-04-24T00:36:31;7.77;;;5.67;;
3922;SDS011;1976;51.694;6.256;2023-04-24T00:38:57;4.63;;;3.97;;
3922;SDS011;1976;51.694;6.256;2023-04-24T00:41:26;8.27;;;5.27;;
3922;SDS011;1976;51.694;6.256;2023-04-24T00:43:52;8.13;;;3.90;;
3922;SDS011;1976;51.694;6.256;2023-04-24T00:46:18;11.90;;;7.27;;
3922;SDS011;1976;51.694;6.256;2023-04-24T00:48:44;10.30;;;6.17;;
3922;SDS011;1976;51.694;6.256;2023-04-24T00:51:10;9.47;;;6.10;;
3922;SDS011;1976;51.694;6.256;2023-04-24T00:53:36;7.50;;;6.40;;
3922;SDS011;1976;51.694;6.256;2023-04-24T00:56:02;8.03;;;6.63;;
3922;SDS011;1976;51.694;6.256;2023-04-24T00:58:28;8.00;;;6.10;;
3922;SDS011;1976;51.694;6.256;2023-04-24T01:00:55;8.87;;;6.40;;
3922;SDS011;1976;51.694;6.256;2023-04-24T01:03:23;12.70;;;5.60;;
3922;SDS011;1976;51.694;6.256;2023-04-24T01:05:52;7.17;;;5.33;;
3922;SDS011;1976;51.694;6.256;2023-04-24T01:08:19;5.37;;;4.17;;
3922;SDS011;1976;51.694;6.256;2023-04-24T01:10:45;7.67;;;4.93;;
3922;SDS011;1976;51.694;6.256;2023-04-24T01:13:12;6.83;;;5.13;;
3922;SDS011;1976;51.694;6.256;2023-04-24T01:15:38;6.43;;;5.60;;
3922;SDS011;1976;51.694;6.256;2023-04-24T01:18:04;5.83;;;4.50;;
3922;SDS011;1976;51.694;6.256;2023-04-24T01:20:30;6.87;;;4.90;;
3922;SDS011;1976;51.694;6.256;2023-04-24T01:22:56;7.30;;;4.83;;
3922;SDS011;1976;51.694;6.256;2023-04-24T01:25:23;4.40;;;3.87;;
3922;SDS011;1976;51.694;6.256;2023-04-24T01:27:50;8.80;;;5.30;;
3922;SDS011;1976;51.694;6.256;2023-04-24T01:30:17;24.03;;;5.60;;
3922;SDS011;1976;51.694;6.256;2023-04-24T01:32:43;7.30;;;5.50;;
3922;SDS011;1976;51.694;6.256;2023-04-24T01:35:10;6.27;;;5.07;;
3922;SDS011;1976;51.694;6.256;2023-04-24T01:37:36;11.30;;;5.30;;
3922;SDS011;1976;51.694;6.256;2023-04-24T01:40:05;12.40;;;7.40;;
3922;SDS011;1976;51.694;6.256;2023-04-24T01:42:32;11.47;;;7.20;;
3922;SDS011;1976;51.694;6.256;2023-04-24T01:44:58;11.90;;;6.80;;
3922;SDS011;1976;51.694;6.256;2023-04-24T01:47:24;3.77;;;3.47;;
3922;SDS011;1976;51.694;6.256;2023-04-24T01:49:51;8.17;;;6.27;;
3922;SDS011;1976;51.694;6.256;2023-04-24T01:52:17;12.87;;;8.07;;
3922;SDS011;1976;51.694;6.256;2023-04-24T01:54:44;10.60;;;7.00;;
3922;SDS011;1976;51.694;6.256;2023-04-24T01:57:09;11.07;;;6.97;;
3922;SDS011;1976;51.694;6.256;2023-04-24T01:59:36;15.20;;;9.60;;
3922;SDS011;1976;51.694;6.256;2023-04-24T02:02:02;13.13;;;9.70;;
3922;SDS011;1976;51.694;6.256;2023-04-24T02:04:28;9.63;;;8.63;;
3922;SDS011;1976;51.694;6.256;2023-04-24T02:06:54;14.17;;;9.30;;
3922;SDS011;1976;51.694;6.256;2023-04-24T02:09:20;13.93;;;8.20;;
3922;SDS011;1976;51.694;6.256;2023-04-24T02:11:46;14.83;;;7.63;;
3922;SDS011;1976;51.694;6.256;2023-04-24T02:14:12;17.00;;;8.07;;
3922;SDS011;1976;51.694;6.256;2023-04-24T02:16:38;11.10;;;7.27;;
3922;SDS011;1976;51.694;6.256;2023-04-24T02:19:03;20.23;;;10.10;;
3922;SDS011;1976;51.694;6.256;2023-04-24T02:21:29;10.60;;;5.97;;
3922;SDS011;1976;51.694;6.256;2023-04-24T02:23:56;14.70;;;9.40;;
3922;SDS011;1976;51.694;6.256;2023-04-24T02:26:22;17.67;;;11.37;;
3922;SDS011;1976;51.694;6.256;2023-04-24T02:28:48;14.77;;;9.10;;
3922;SDS011;1976;51.694;6.256;2023-04-24T02:31:13;15.00;;;8.80;;
3922;SDS011;1976;51.694;6.256;2023-04-24T02:33:39;6.20;;;4.70;;
3922;SDS011;1976;51.694;6.256;2023-04-24T02:36:05;14.63;;;9.87;;
3922;SDS011;1976;51.694;6.256;2023-04-24T02:38:31;18.83;;;11.33;;
3922;SDS011;1976;51.694;6.256;2023-04-24T02:40:57;12.40;;;7.90;;
3922;SDS011;1976;51.694;6.256;2023-04-24T02:43:23;14.97;;;11.87;;
3922;SDS011;1976;51.694;6.256;2023-04-24T02:45:49;22.10;;;11.13;;
3922;SDS011;1976;51.694;6.256;2023-04-24T02:48:15;19.43;;;13.90;;
3922;SDS011;1976;51.694;6.256;2023-04-24T02:50:42;33.03;;;10.03;;
3922;SDS011;1976;51.694;6.256;2023-04-24T02:53:07;15.70;;;9.37;;
3922;SDS011;1976;51.694;6.256;2023-04-24T02:55:34;14.97;;;11.63;;
3922;SDS011;1976;51.694;6.256;2023-04-24T02:58:00;18.77;;;11.80;;
3922;SDS011;1976;51.694;6.256;2023-04-24T03:00:26;19.10;;;9.30;;
3922;SDS011;1976;51.694;6.256;2023-04-24T03:02:52;14.73;;;10.60;;
3922;SDS011;1976;51.694;6.256;2023-04-24T03:05:18;40.50;;;12.13;;
3922;SDS011;1976;51.694;6.256;2023-04-24T03:07:44;15.50;;;10.43;;
3922;SDS011;1976;51.694;6.256;2023-04-24T03:10:10;31.90;;;16.70;;
3922;SDS011;1976;51.694;6.256;2023-04-24T03:12:36;24.23;;;17.67;;
3922;SDS011;1976;51.694;6.256;2023-04-24T03:15:02;26.53;;;13.00;;
3922;SDS011;1976;51.694;6.256;2023-04-24T03:17:28;26.17;;;16.87;;
3922;SDS011;1976;51.694;6.256;2023-04-24T03:19:54;16.63;;;12.23;;
3922;SDS011;1976;51.694;6.256;2023-04-24T03:22:20;14.47;;;9.60;;
3922;SDS011;1976;51.694;6.256;2023-04-24T03:24:46;17.40;;;13.80;;
3922;SDS011;1976;51.694;6.256;2023-04-24T03:27:12;20.07;;;14.80;;
3922;SDS011;1976;51.694;6.256;2023-04-24T03:29:38;15.13;;;9.47;;
3922;SDS011;1976;51.694;6.256;2023-04-24T03:32:04;21.80;;;10.20;;
3922;SDS011;1976;51.694;6.256;2023-04-24T03:34:30;16.40;;;10.30;;
3922;SDS011;1976;51.694;6.256;2023-04-24T03:36:56;20.50;;;8.90;;
3922;SDS011;1976;51.694;6.256;2023-04-24T03:39:22;17.20;;;10.30;;
3922;SDS011;1976;51.694;6.256;2023-04-24T03:41:50;7.47;;;6.13;;
3922;SDS011;1976;51.694;6.256;2023-04-24T03:44:16;26.00;;;15.67;;
3922;SDS011;1976;51.694;6.256;2023-04-24T03:46:42;10.67;;;8.83;;
3922;SDS011;1976;51.694;6.256;2023-04-24T03:49:07;15.57;;;9.63;;
3922;SDS011;1976;51.694;6.256;2023-04-24T03:51:33;15.60;;;13.30;;
3922;SDS011;1976;51.694;6.256;2023-04-24T03:53:59;16.90;;;11.73;;
3922;SDS011;1976;51.694;6.256;2023-04-24T03:56:25;0.60;;;0.60;;
3922;SDS011;1976;51.694;6.256;2023-04-24T03:58:51;0.60;;;0.60;;
3922;SDS011;1976;51.694;6.256;2023-04-24T04:01:17;0.70;;;0.70;;
3922;SDS011;1976;51.694;6.256;2023-04-24T04:03:45;0.73;;;0.73;;
3922;SDS011;1976;51.694;6.256;2023-04-24T04:06:11;0.60;;;0.60;;
3922;SDS011;1976;51.694;6.256;2023-04-24T04:08:38;0.77;;;0.77;;
3922;SDS011;1976;51.694;6.256;2023-04-24T04:11:03;0.60;;;0.60;;
3922;SDS011;1976;51.694;6.256;2023-04-24T04:13:29;0.60;;;0.60;;
3922;SDS011;1976;51.694;6.256;2023-04-24T04:15:56;0.60;;;0.60;;
3922;SDS011;1976;51.694;6.256;2023-04-24T04:18:22;0.60;;;0.60;;
3922;SDS011;1976;51.694;6.256;2023-04-24T04:20:48;0.60;;;0.60;;
3922;SDS011;1976;51.694;6.256;2023-04-24T04:23:14;0.60;;;0.60;;
3922;SDS011;1976;51.694;6.256;2023-04-24T04:25:40;0.60;;;0.60;;
3922;SDS011;1976;51.694;6.256;2023-04-24T04:28:06;0.60;;;0.60;;
3922;SDS011;1976;51.694;6.256;2023-04-24T04:30:32;0.67;;;0.67;;
3922;SDS011;1976;51.694;6.256;2023-04-24T04:32:58;0.60;;;0.60;;
3922;SDS011;1976;51.694;6.256;2023-04-24T04:35:24;0.70;;;0.70;;
3922;SDS011;1976;51.694;6.256;2023-04-24T04:37:50;0.70;;;0.70;;
3922;SDS011;1976;51.694;6.256;2023-04-24T04:40:16;0.70;;;0.70;;
3922;SDS011;1976;51.694;6.256;2023-04-24T04:42:42;0.60;;;0.60;;
3922;SDS011;1976;51.694;6.256;2023-04-24T04:45:11;0.60;;;0.60;;
3922;SDS011;1976;51.694;6.256;2023-04-24T04:47:36;0.60;;;0.60;;
3922;SDS011;1976;51.694;6.256;2023-04-24T04:50:03;0.60;;;0.60;;
3922;SDS011;1976;51.694;6.256;2023-04-24T04:52:30;0.60;;;0.60;;
3922;SDS011;1976;51.694;6.256;2023-04-24T04:54:56;0.60;;;0.60;;
3922;SDS011;1976;51.694;6.256;2023-04-24T04:57:22;0.70;;;0.70;;
3922;SDS011;1976;51.694;6.256;2023-04-24T04:59:48;0.60;;;0.60;;
3922;SDS011;1976;51.694;6.256;2023-04-24T05:02:13;0.60;;;0.60;;
3922;SDS011;1976;51.694;6.256;2023-04-24T05:04:39;0.63;;;0.63;;
3922;SDS011;1976;51.694;6.256;2023-04-24T05:07:05;0.60;;;0.60;;
3922;SDS011;1976;51.694;6.256;2023-04-24T05:09:31;0.70;;;0.70;;
3922;SDS011;1976;51.694;6.256;2023-04-24T05:11:57;0.60;;;0.60;;
3922;SDS011;1976;51.694;6.256;2023-04-24T05:14:23;0.60;;;0.60;;
3922;SDS011;1976;51.694;6.256;2023-04-24T05:16:49;0.60;;;0.60;;
3922;SDS011;1976;51.694;6.256;2023-04-24T05:19:15;0.60;;;0.60;;
3922;SDS011;1976;51.694;6.256;2023-04-24T05:21:41;0.60;;;0.60;;
3922;SDS011;1976;51.694;6.256;2023-04-24T05:24:07;0.97;;;0.80;;
3922;SDS011;1976;51.694;6.256;2023-04-24T05:26:33;0.70;;;0.70;;
3922;SDS011;1976;51.694;6.256;2023-04-24T05:29:00;0.60;;;0.60;;
3922;SDS011;1976;51.694;6.256;2023-04-24T05:31:27;0.60;;;0.60;;
3922;SDS011;1976;51.694;6.256;2023-04-24T05:33:52;0.70;;;0.70;;
3922;SDS011;1976;51.694;6.256;2023-04-24T05:36:18;0.60;;;0.60;;
3922;SDS011;1976;51.694;6.256;2023-04-24T05:38:44;0.60;;;0.60;;
3922;SDS011;1976;51.694;6.256;2023-04-24T05:41:10;0.60;;;0.60;;
3922;SDS011;1976;51.694;6.256;2023-04-24T05:43:36;0.70;;;0.70;;
3922;SDS011;1976;51.694;6.256;2023-04-24T05:46:01;0.70;;;0.70;;
3922;SDS011;1976;51.694;6.256;2023-04-24T05:48:27;0.70;;;0.70;;
3922;SDS011;1976;51.694;6.256;2023-04-24T05:50:53;0.67;;;0.67;;
3922;SDS011;1976;51.694;6.256;2023-04-24T05:53:20;0.70;;;0.70;;
3922;SDS011;1976;51.694;6.256;2023-04-24T05:55:46;0.70;;;0.70;;
3922;SDS011;1976;51.694;6.256;2023-04-24T05:58:12;0.70;;;0.70;;
3922;SDS011;1976;51.694;6.256;2023-04-24T06:00:39;0.70;;;0.70;;
3922;SDS011;1976;51.694;6.256;2023-04-24T06:03:07;0.60;;;0.60;;
3922;SDS011;1976;51.694;6.256;2023-04-24T06:05:33;0.60;;;0.60;;
3922;SDS011;1976;51.694;6.256;2023-04-24T06:07:59;0.60;;;0.60;;
3922;SDS011;1976;51.694;6.256;2023-04-24T06:10:25;0.60;;;0.60;;
3922;SDS011;1976;51.694;6.256;2023-04-24T06:12:52;0.60;;;0.60;;
3922;SDS011;1976;51.694;6.256;2023-04-24T06:15:21;0.60;;;0.60;;
3922;SDS011;1976;51.694;6.256;2023-04-24T06:17:47;0.60;;;0.60;;
3922;SDS011;1976;51.694;6.256;2023-04-24T06:20:12;0.60;;;0.60;;
3922;SDS011;1976;51.694;6.256;2023-04-24T06:22:38;0.60;;;0.60;;
3922;SDS011;1976;51.694;6.256;2023-04-24T06:25:05;0.60;;;0.60;;
3922;SDS011;1976;51.694;6.256;2023-04-24T06:27:32;0.70;;;0.70;;
3922;SDS011;1976;51.694;6.256;2023-04-24T06:29:57;0.60;;;0.60;;
3922;SDS011;1976;51.694;6.256;2023-04-24T06:32:23;0.60;;;0.60;;
3922;SDS011;1976;51.694;6.256;2023-04-24T06:34:51;0.60;;;0.60;;
3922;SDS011;1976;51.694;6.256;2023-04-24T06:37:18;0.67;;;0.67;;
3922;SDS011;1976;51.694;6.256;2023-04-24T06:39:45;0.70;;;0.70;;
3922;SDS011;1976;51.694;6.256;2023-04-24T06:42:11;0.60;;;0.60;;
3922;SDS011;1976;51.694;6.256;2023-04-24T06:44:37;0.60;;;0.60;;
3922;SDS011;1976;51.694;6.256;2023-04-24T06:47:09;0.60;;;0.60;;
3922;SDS011;1976;51.694;6.256;2023-04-24T06:49:37;0.60;;;0.60;;
3922;SDS011;1976;51.694;6.256;2023-04-24T06:52:02;0.60;;;0.60;;
3922;SDS011;1976;51.694;6.256;2023-04-24T06:54:29;0.60;;;0.60;;
3922;SDS011;1976;51.694;6.256;2023-04-24T06:56:56;0.70;;;0.70;;
3922;SDS011;1976;51.694;6.256;2023-04-24T06:59:22;0.70;;;0.70;;
3922;SDS011;1976;51.694;6.256;2023-04-24T07:01:49;0.70;;;0.70;;
3922;SDS011;1976;51.694;6.256;2023-04-24T07:04:16;0.60;;;0.60;;
3922;SDS011;1976;51.694;6.256;2023-04-24T07:06:42;0.70;;;0.70;;
3922;SDS011;1976;51.694;6.256;2023-04-24T07:09:08;0.60;;;0.60;;
3922;SDS011;1976;51.694;6.256;2023-04-24T07:11:34;1.03;;;1.03;;
3922;SDS011;1976;51.694;6.256;2023-04-24T07:14:02;0.60;;;0.60;;
3922;SDS011;1976;51.694;6.256;2023-04-24T07:16:28;0.70;;;0.70;;
3922;SDS011;1976;51.694;6.256;2023-04-24T07:18:55;0.70;;;0.70;;
3922;SDS011;1976;51.694;6.256;2023-04-24T07:21:21;0.70;;;0.70;;
3922;SDS011;1976;51.694;6.256;2023-04-24T07:23:46;0.60;;;0.60;;
3922;SDS011;1976;51.694;6.256;2023-04-24T07:26:12;0.60;;;0.60;;
3922;SDS011;1976;51.694;6.256;2023-04-24T07:28:39;0.60;;;0.60;;
3922;SDS011;1976;51.694;6.256;2023-04-24T07:31:06;0.60;;;0.60;;
3922;SDS011;1976;51.694;6.256;2023-04-24T07:33:32;0.60;;;0.60;;
3922;SDS011;1976;51.694;6.256;2023-04-24T07:35:58;0.60;;;0.60;;
3922;SDS011;1976;51.694;6.256;2023-04-24T07:38:24;0.60;;;0.60;;
3922;SDS011;1976;51.694;6.256;2023-04-24T07:40:50;0.60;;;0.60;;
3922;SDS011;1976;51.694;6.256;2023-04-24T07:43:16;0.60;;;0.60;;
3922;SDS011;1976;51.694;6.256;2023-04-24T07:45:43;0.60;;;0.60;;
3922;SDS011;1976;51.694;6.256;2023-04-24T07:48:09;0.60;;;0.60;;
3922;SDS011;1976;51.694;6.256;2023-04-24T07:50:35;0.60;;;0.60;;
3922;SDS011;1976;51.694;6.256;2023-04-24T07:53:01;0.60;;;0.60;;
3922;SDS011;1976;51.694;6.256;2023-04-24T07:55:27;0.60;;;0.60;;
3922;SDS011;1976;51.694;6.256;2023-04-24T07:57:53;0.60;;;0.60;;
3922;SDS011;1976;51.694;6.256;2023-04-24T08:00:19;0.60;;;0.60;;
3922;SDS011;1976;51.694;6.256;2023-04-24T08:02:45;0.60;;;0.60;;
3922;SDS011;1976;51.694;6.256;2023-04-24T08:05:11;0.60;;;0.60;;
3922;SDS011;1976;51.694;6.256;2023-04-24T08:07:37;0.60;;;0.60;;
3922;SDS011;1976;51.694;6.256;2023-04-24T08:10:03;0.60;;;0.60;;
3922;SDS011;1976;51.694;6.256;2023-04-24T08:12:29;0.60;;;0.60;;
3922;SDS011;1976;51.694;6.256;2023-04-24T08:14:55;0.60;;;0.60;;
3922;SDS011;1976;51.694;6.256;2023-04-24T08:17:21;0.60;;;0.60;;
3922;SDS011;1976;51.694;6.256;2023-04-24T08:19:47;0.60;;;0.60;;
3922;SDS011;1976;51.694;6.256;2023-04-24T08:22:14;0.60;;;0.60;;
3922;SDS011;1976;51.694;6.256;2023-04-24T08:24:40;0.60;;;0.60;;
3922;SDS011;1976;51.694;6.256;2023-04-24T08:27:05;0.60;;;0.60;;
3922;SDS011;1976;51.694;6.256;2023-04-24T08:29:31;0.60;;;0.60;;
3922;SDS011;1976;51.694;6.256;2023-04-24T08:31:57;0.60;;;0.60;;
3922;SDS011;1976;51.694;6.256;2023-04-24T08:34:23;0.60;;;0.60;;
3922;SDS011;1976;51.694;6.256;2023-04-24T08:36:49;0.60;;;0.60;;
3922;SDS011;1976;51.694;6.256;2023-04-24T08:39:15;0.60;;;0.60;;
3922;SDS011;1976;51.694;6.256;2023-04-24T08:41:43;0.70;;;0.70;;
3922;SDS011;1976;51.694;6.256;2023-04-24T08:44:10;0.60;;;0.60;;
3922;SDS011;1976;51.694;6.256;2023-04-24T08:46:37;0.60;;;0.60;;
3922;SDS011;1976;51.694;6.256;2023-04-24T08:49:03;0.60;;;0.60;;
3922;SDS011;1976;51.694;6.256;2023-04-24T08:51:30;0.60;;;0.60;;
3922;SDS011;1976;51.694;6.256;2023-04-24T08:53:57;0.60;;;0.60;;
3922;SDS011;1976;51.694;6.256;2023-04-24T08:56:22;0.60;;;0.60;;
3922;SDS011;1976;51.694;6.256;2023-04-24T08:58:50;0.60;;;0.60;;
3922;SDS011;1976;51.694;6.256;2023-04-24T09:01:17;0.60;;;0.60;;
3922;SDS011;1976;51.694;6.256;2023-04-24T09:03:45;0.70;;;0.70;;
3922;SDS011;1976;51.694;6.256;2023-04-24T09:06:13;0.60;;;0.60;;
3922;SDS011;1976;51.694;6.256;2023-04-24T09:08:39;0.60;;;0.60;;
3922;SDS011;1976;51.694;6.256;2023-04-24T09:11:07;0.60;;;0.60;;
3922;SDS011;1976;51.694;6.256;2023-04-24T09:13:34;0.60;;;0.60;;
3922;SDS011;1976;51.694;6.256;2023-04-24T09:16:00;0.60;;;0.60;;
3922;SDS011;1976;51.694;6.256;2023-04-24T09:18:26;0.60;;;0.60;;
3922;SDS011;1976;51.694;6.256;2023-04-24T09:21:02;0.70;;;0.70;;
3922;SDS011;1976;51.694;6.256;2023-04-24T09:23:30;0.60;;;0.60;;
3922;SDS011;1976;51.694;6.256;2023-04-24T09:25:57;0.60;;;0.60;;
3922;SDS011;1976;51.694;6.256;2023-04-24T09:28:46;0.60;;;0.60;;
3922;SDS011;1976;51.694;6.256;2023-04-24T09:31:15;0.60;;;0.60;;
3922;SDS011;1976;51.694;6.256;2023-04-24T09:33:57;0.60;;;0.60;;
3922;SDS011;1976;51.694;6.256;2023-04-24T09:36:32;0.60;;;0.60;;
3922;SDS011;1976;51.694;6.256;2023-04-24T09:38:59;0.60;;;0.60;;
3922;SDS011;1976;51.694;6.256;2023-04-24T09:41:26;0.60;;;0.60;;
3922;SDS011;1976;51.694;6.256;2023-04-24T09:43:54;0.60;;;0.60;;
3922;SDS011;1976;51.694;6.256;2023-04-24T09:46:20;0.60;;;0.60;;
3922;SDS011;1976;51.694;6.256;2023-04-24T09:48:47;0.60;;;0.60;;
3922;SDS011;1976;51.694;6.256;2023-04-24T09:51:13;0.60;;;0.60;;
3922;SDS011;1976;51.694;6.256;2023-04-24T09:53:44;0.60;;;0.60;;
3922;SDS011;1976;51.694;6.256;2023-04-24T09:56:11;0.60;;;0.60;;
3922;SDS011;1976;51.694;6.256;2023-04-24T09:58:38;0.70;;;0.70;;
3922;SDS011;1976;51.694;6.256;2023-04-24T10:01:04;0.60;;;0.60;;
3922;SDS011;1976;51.694;6.256;2023-04-24T10:03:30;0.60;;;0.60;;
3922;SDS011;1976;51.694;6.256;2023-04-24T10:06:00;0.63;;;0.63;;
3922;SDS011;1976;51.694;6.256;2023-04-24T10:08:34;0.60;;;0.60;;
3922;SDS011;1976;51.694;6.256;2023-04-24T10:11:00;0.70;;;0.70;;
3922;SDS011;1976;51.694;6.256;2023-04-24T10:13:26;0.60;;;0.60;;
3922;SDS011;1976;51.694;6.256;2023-04-24T10:15:53;0.60;;;0.60;;
3922;SDS011;1976;51.694;6.256;2023-04-24T10:18:20;0.60;;;0.60;;
3922;SDS011;1976;51.694;6.256;2023-04-24T10:20:47;0.60;;;0.60;;
3922;SDS011;1976;51.694;6.256;2023-04-24T10:23:13;0.60;;;0.60;;
3922;SDS011;1976;51.694;6.256;2023-04-24T10:25:40;0.60;;;0.60;;
3922;SDS011;1976;51.694;6.256;2023-04-24T10:28:05;0.60;;;0.60;;
3922;SDS011;1976;51.694;6.256;2023-04-24T10:30:32;0.60;;;0.60;;
3922;SDS011;1976;51.694;6.256;2023-04-24T10:33:02;0.63;;;0.63;;
3922;SDS011;1976;51.694;6.256;2023-04-24T10:35:35;0.60;;;0.60;;
3922;SDS011;1976;51.694;6.256;2023-04-24T10:38:13;0.60;;;0.60;;
3922;SDS011;1976;51.694;6.256;2023-04-24T10:40:41;0.60;;;0.60;;
3922;SDS011;1976;51.694;6.256;2023-04-24T10:43:08;0.60;;;0.60;;
3922;SDS011;1976;51.694;6.256;2023-04-24T10:45:37;0.60;;;0.60;;
3922;SDS011;1976;51.694;6.256;2023-04-24T10:48:04;0.60;;;0.60;;
3922;SDS011;1976;51.694;6.256;2023-04-24T10:53:30;0.60;;;0.60;;
3922;SDS011;1976;51.694;6.256;2023-04-24T10:56:03;0.60;;;0.60;;
3922;SDS011;1976;51.694;6.256;2023-04-24T11:01:05;0.60;;;0.60;;
3922;SDS011;1976;51.694;6.256;2023-04-24T11:03:32;0.60;;;0.60;;
3922;SDS011;1976;51.694;6.256;2023-04-24T11:08:38;0.60;;;0.60;;
3922;SDS011;1976;51.694;6.256;2023-04-24T11:17:04;0.60;;;0.60;;
3922;SDS011;1976;51.694;6.256;2023-04-24T11:19:08;0.60;;;0.60;;
3922;SDS011;1976;51.694;6.256;2023-04-24T11:34:58;0.60;;;0.60;;
3922;SDS011;1976;51.694;6.256;2023-04-24T11:37:33;0.60;;;0.60;;
3922;SDS011;1976;51.694;6.256;2023-04-24T11:40:04;0.60;;;0.60;;
3922;SDS011;1976;51.694;6.256;2023-04-24T11:42:35;0.60;;;0.60;;
3922;SDS011;1976;51.694;6.256;2023-04-24T11:45:08;0.60;;;0.60;;
3922;SDS011;1976;51.694;6.256;2023-04-24T11:47:53;0.60;;;0.60;;
3922;SDS011;1976;51.694;6.256;2023-04-24T11:50:20;0.60;;;0.60;;
3922;SDS011;1976;51.694;6.256;2023-04-24T11:52:48;0.60;;;0.60;;
3922;SDS011;1976;51.694;6.256;2023-04-24T11:57:39;0.60;;;0.60;;
3922;SDS011;1976;51.694;6.256;2023-04-24T12:00:14;0.60;;;0.60;;
3922;SDS011;1976;51.694;6.256;2023-04-24T12:02:41;0.60;;;0.60;;
3922;SDS011;1976;51.694;6.256;2023-04-24T12:05:08;0.60;;;0.60;;
3922;SDS011;1976;51.694;6.256;2023-04-24T12:07:41;0.70;;;0.70;;
3922;SDS011;1976;51.694;6.256;2023-04-24T12:10:10;0.60;;;0.60;;
3922;SDS011;1976;51.694;6.256;2023-04-24T12:12:36;0.60;;;0.60;;
3922;SDS011;1976;51.694;6.256;2023-04-24T12:15:06;0.67;;;0.67;;
3922;SDS011;1976;51.694;6.256;2023-04-24T12:17:33;0.60;;;0.60;;
3922;SDS011;1976;51.694;6.256;2023-04-24T12:20:02;0.60;;;0.60;;
3922;SDS011;1976;51.694;6.256;2023-04-24T12:25:16;0.60;;;0.60;;
3922;SDS011;1976;51.694;6.256;2023-04-24T12:27:43;0.60;;;0.60;;
3922;SDS011;1976;51.694;6.256;2023-04-24T12:30:11;0.60;;;0.60;;
3922;SDS011;1976;51.694;6.256;2023-04-24T12:32:46;0.60;;;0.60;;
3922;SDS011;1976;51.694;6.256;2023-04-24T12:35:13;0.60;;;0.60;;
3922;SDS011;1976;51.694;6.256;2023-04-24T12:37:43;0.60;;;0.60;;
3922;SDS011;1976;51.694;6.256;2023-04-24T12:40:10;0.60;;;0.60;;
3922;SDS011;1976;51.694;6.256;2023-04-24T12:42:43;0.60;;;0.60;;
3922;SDS011;1976;51.694;6.256;2023-04-24T12:45:14;0.70;;;0.70;;
3922;SDS011;1976;51.694;6.256;2023-04-24T12:47:41;0.70;;;0.70;;
3922;SDS011;1976;51.694;6.256;2023-04-24T12:50:08;0.60;;;0.60;;
3922;SDS011;1976;51.694;6.256;2023-04-24T12:52:38;0.70;;;0.70;;
3922;SDS011;1976;51.694;6.256;2023-04-24T12:55:04;0.60;;;0.60;;
3922;SDS011;1976;51.694;6.256;2023-04-24T12:57:33;0.60;;;0.60;;
3922;SDS011;1976;51.694;6.256;2023-04-24T12:59:59;0.60;;;0.60;;
3922;SDS011;1976;51.694;6.256;2023-04-24T13:02:27;0.60;;;0.60;;
3922;SDS011;1976;51.694;6.256;2023-04-24T13:04:57;0.60;;;0.60;;
3922;SDS011;1976;51.694;6.256;2023-04-24T13:07:23;1.70;;;1.60;;
3922;SDS011;1976;51.694;6.256;2023-04-24T13:09:50;2.50;;;1.20;;
3922;SDS011;1976;51.694;6.256;2023-04-24T13:12:16;2.43;;;1.83;;
3922;SDS011;1976;51.694;6.256;2023-04-24T13:14:42;1.73;;;1.20;;
3922;SDS011;1976;51.694;6.256;2023-04-24T13:17:08;3.83;;;1.97;;
3922;SDS011;1976;51.694;6.256;2023-04-24T13:19:38;1.97;;;1.50;;
3922;SDS011;1976;51.694;6.256;2023-04-24T13:22:08;6.47;;;2.00;;
3922;SDS011;1976;51.694;6.256;2023-04-24T13:24:35;5.33;;;1.50;;
3922;SDS011;1976;51.694;6.256;2023-04-24T13:27:02;8.43;;;2.00;;
3922;SDS011;1976;51.694;6.256;2023-04-24T13:29:28;3.73;;;2.00;;
3922;SDS011;1976;51.694;6.256;2023-04-24T13:31:54;1.40;;;1.30;;
3922;SDS011;1976;51.694;6.256;2023-04-24T13:34:20;1.63;;;1.40;;
3922;SDS011;1976;51.694;6.256;2023-04-24T13:36:47;6.20;;;1.67;;
3922;SDS011;1976;51.694;6.256;2023-04-24T13:39:12;2.10;;;2.00;;
3922;SDS011;1976;51.694;6.256;2023-04-24T13:41:38;3.73;;;2.20;;
3922;SDS011;1976;51.694;6.256;2023-04-24T13:44:05;2.37;;;1.60;;
3922;SDS011;1976;51.694;6.256;2023-04-24T13:46:31;3.33;;;2.20;;
3922;SDS011;1976;51.694;6.256;2023-04-24T13:48:57;5.97;;;1.60;;
3922;SDS011;1976;51.694;6.256;2023-04-24T13:51:23;3.90;;;2.20;;
3922;SDS011;1976;51.694;6.256;2023-04-24T13:53:52;3.07;;;2.33;;
3922;SDS011;1976;51.694;6.256;2023-04-24T13:56:18;9.33;;;2.03;;
3922;SDS011;1976;51.694;6.256;2023-04-24T13:58:45;6.07;;;1.87;;
3922;SDS011;1976;51.694;6.256;2023-04-24T14:01:10;1.30;;;1.20;;
3922;SDS011;1976;51.694;6.256;2023-04-24T14:03:37;2.07;;;1.50;;
3922;SDS011;1976;51.694;6.256;2023-04-24T14:06:02;1.57;;;0.90;;
3922;SDS011;1976;51.694;6.256;2023-04-24T14:08:28;2.87;;;1.33;;
3922;SDS011;1976;51.694;6.256;2023-04-24T14:10:54;2.27;;;1.63;;
3922;SDS011;1976;51.694;6.256;2023-04-24T14:13:20;2.27;;;1.33;;
3922;SDS011;1976;51.694;6.256;2023-04-24T14:15:46;2.33;;;0.97;;
3922;SDS011;1976;51.694;6.256;2023-04-24T14:18:13;9.17;;;3.10;;
3922;SDS011;1976;51.694;6.256;2023-04-24T14:20:39;2.73;;;1.23;;
3922;SDS011;1976;51.694;6.256;2023-04-24T14:23:05;3.50;;;1.70;;
3922;SDS011;1976;51.694;6.256;2023-04-24T14:25:31;3.57;;;1.90;;
3922;SDS011;1976;51.694;6.256;2023-04-24T14:27:56;2.20;;;1.33;;
3922;SDS011;1976;51.694;6.256;2023-04-24T14:30:22;10.47;;;3.43;;
3922;SDS011;1976;51.694;6.256;2023-04-24T14:32:48;3.93;;;1.80;;
3922;SDS011;1976;51.694;6.256;2023-04-24T14:35:14;4.40;;;2.10;;
3922;SDS011;1976;51.694;6.256;2023-04-24T14:37:40;1.97;;;1.70;;
3922;SDS011;1976;51.694;6.256;2023-04-24T14:40:06;2.10;;;1.50;;
3922;SDS011;1976;51.694;6.256;2023-04-24T14:42:33;2.50;;;1.57;;
3922;SDS011;1976;51.694;6.256;2023-04-24T14:44:59;13.43;;;2.10;;
3922;SDS011;1976;51.694;6.256;2023-04-24T14:47:25;4.60;;;2.40;;
3922;SDS011;1976;51.694;6.256;2023-04-24T14:49:51;3.00;;;1.80;;
3922;SDS011;1976;51.694;6.256;2023-04-24T14:52:17;4.80;;;3.00;;
3922;SDS011;1976;51.694;6.256;2023-04-24T14:54:43;2.17;;;1.90;;
3922;SDS011;1976;51.694;6.256;2023-04-24T14:57:10;4.73;;;1.83;;
3922;SDS011;1976;51.694;6.256;2023-04-24T14:59:35;3.50;;;1.37;;
3922;SDS011;1976;51.694;6.256;2023-04-24T15:02:01;2.20;;;1.20;;
3922;SDS011;1976;51.694;6.256;2023-04-24T15:04:28;9.20;;;2.67;;
3922;SDS011;1976;51.694;6.256;2023-04-24T15:06:54;2.67;;;1.80;;
3922;SDS011;1976;51.694;6.256;2023-04-24T15:09:20;5.53;;;1.60;;
3922;SDS011;1976;51.694;6.256;2023-04-24T15:11:48;2.53;;;1.43;;
3922;SDS011;1976;51.694;6.256;2023-04-24T15:14:16;5.97;;;2.10;;
3922;SDS011;1976;51.694;6.256;2023-04-24T15:16:42;10.97;;;2.40;;
3922;SDS011;1976;51.694;6.256;2023-04-24T15:19:08;2.63;;;2.03;;
3922;SDS011;1976;51.694;6.256;2023-04-24T15:21:35;13.57;;;3.13;;
3922;SDS011;1976;51.694;6.256;2023-04-24T15:24:02;3.37;;;1.63;;
3922;SDS011;1976;51.694;6.256;2023-04-24T15:26:28;4.20;;;2.03;;
3922;SDS011;1976;51.694;6.256;2023-04-24T15:28:54;4.80;;;2.40;;
3922;SDS011;1976;51.694;6.256;2023-04-24T15:31:20;3.90;;;1.77;;
3922;SDS011;1976;51.694;6.256;2023-04-24T15:33:47;5.50;;;1.87;;
3922;SDS011;1976;51.694;6.256;2023-04-24T15:36:14;5.50;;;3.07;;
3922;SDS011;1976;51.694;6.256;2023-04-24T15:38:40;2.80;;;1.97;;
3922;SDS011;1976;51.694;6.256;2023-04-24T15:41:06;8.63;;;2.30;;
3922;SDS011;1976;51.694;6.256;2023-04-24T15:43:32;8.43;;;2.57;;